Time;durP1;ratioP1;P1;durP2;ratioP2;P2;SDS_P1;SDS_P2;PMS_P1;PMS_P2;Temp;Humidity;BMP_temperature;BMP_pressure;BME280_temperature;BME280_humidity;BME280_pressure;Samples;Min_cycle;Max_cycle;Signal;HPM_P1;HPM_P2
2022/01/19 00:00:55;;;;;;;;;43.00;39.00;;;;;;;;5164484;27;12479;-73
2022/01/19 00:03:21;;;;;;;;;51.00;45.00;;;;;;;;5164657;27;11682;-72
2022/01/19 00:05:46;;;;;;;;;50.00;42.00;;;;;;;;5164672;27;10752;-73
2022/01/19 00:08:17;;;;;;;;;50.00;41.00;;;;;;;;5164478;27;8791;-72
2022/01/19 00:10:43;;;;;;;;;42.33;39.00;;;;;;;;5164309;27;8760;-73
2022/01/19 00:13:08;;;;;;;;;54.67;44.67;;;;;;;;5164029;27;12209;-73
2022/01/19 00:15:33;;;;;;;;;53.00;42.00;;;;;;;;5144893;27;13669;-73
2022/01/19 00:17:59;;;;;;;;;48.00;42.00;;;;;;;;5163894;27;11909;-72
2022/01/19 00:20:28;;;;;;;;;47.00;35.67;;;;;;;;5164142;27;8784;-73
2022/01/19 00:22:54;;;;;;;;;46.67;42.67;;;;;;;;5163251;27;12567;-73
2022/01/19 00:25:20;;;;;;;;;46.67;38.33;;;;;;;;5164298;27;11372;-73
2022/01/19 11:47:15;;;;;;;;;54.75;44.00;;;;;;;;5206604;27;78851;-77
2022/01/19 11:49:45;;;;;;;;;54.25;45.00;;;;;;;;5188533;27;23100;-74
2022/01/19 11:52:11;;;;;;;;;58.25;46.50;;;;;;;;5188786;27;11519;-73
2022/01/19 11:54:36;;;;;;;;;56.25;45.25;;;;;;;;5157301;27;12984;-71
2022/01/19 11:57:06;;;;;;;;;54.25;43.50;;;;;;;;5176575;27;11363;-76
2022/01/19 11:59:43;;;;;;;;;55.33;45.33;;;;;;;;5178682;27;11469;-74
2022/01/19 12:02:20;;;;;;;;;53.33;44.33;;;;;;;;5174735;27;11981;-78
2022/01/19 12:04:47;;;;;;;;;53.00;42.00;;;;;;;;5176514;27;12319;-74
2022/01/19 12:07:30;;;;;;;;;47.67;38.67;;;;;;;;5176478;27;11771;-74
2022/01/19 12:09:56;;;;;;;;;43.33;39.00;;;;;;;;5175444;27;13292;-71
2022/01/19 12:12:25;;;;;;;;;50.33;42.00;;;;;;;;5176569;27;11442;-70
2022/01/19 12:14:51;;;;;;;;;53.00;41.33;;;;;;;;5174031;27;10910;-70
2022/01/19 12:17:26;;;;;;;;;52.00;44.00;;;;;;;;5176473;27;11445;-70
2022/01/19 12:19:52;;;;;;;;;45.33;37.00;;;;;;;;5174534;27;11538;-70
2022/01/19 12:22:26;;;;;;;;;49.33;42.00;;;;;;;;5176212;27;12469;-70
2022/01/19 12:24:54;;;;;;;;;49.00;42.33;;;;;;;;5174309;27;9768;-71
2022/01/19 12:27:19;;;;;;;;;47.67;42.00;;;;;;;;5176787;27;8791;-70
2022/01/19 12:29:52;;;;;;;;;52.67;42.33;;;;;;;;5174600;27;11514;-70
2022/01/19 12:32:18;;;;;;;;;54.33;43.33;;;;;;;;5169296;27;13442;-70
2022/01/19 12:34:43;;;;;;;;;49.00;40.67;;;;;;;;5166343;27;10505;-70
2022/01/19 12:40:29;;;;;;;;;48.33;40.00;;;;;;;;5154069;27;1373045;-70
2022/01/19 12:43:10;;;;;;;;;50.67;42.00;;;;;;;;5198192;27;22457;-70
2022/01/19 12:45:43;;;;;;;;;52.00;42.00;;;;;;;;5198761;27;12762;-72
2022/01/19 12:48:08;;;;;;;;;51.33;42.00;;;;;;;;5199723;27;8938;-70
2022/01/19 12:50:35;;;;;;;;;47.33;38.67;;;;;;;;5198848;27;9052;-69
2022/01/19 12:53:04;;;;;;;;;48.00;40.00;;;;;;;;5177862;27;13307;-70
2022/01/19 12:55:32;;;;;;;;;43.67;38.33;;;;;;;;5177584;27;12344;-70
2022/01/19 12:57:58;;;;;;;;;47.00;39.33;;;;;;;;5177977;27;12329;-70
2022/01/19 13:00:27;;;;;;;;;48.00;41.67;;;;;;;;5178200;27;10372;-69
2022/01/19 13:02:53;;;;;;;;;44.67;38.67;;;;;;;;5177598;27;12326;-69
2022/01/19 13:05:20;;;;;;;;;49.33;42.00;;;;;;;;5178047;27;11562;-70
2022/01/19 13:07:54;;;;;;;;;48.00;42.00;;;;;;;;5178326;27;12294;-69
2022/01/19 13:12:55;;;;;;;;;41.67;37.00;;;;;;;;5178157;27;11534;-69
2022/01/19 13:15:20;;;;;;;;;38.33;36.67;;;;;;;;5178633;27;9594;-69
2022/01/19 13:17:48;;;;;;;;;47.00;42.00;;;;;;;;5177955;27;13288;-69
2022/01/19 13:20:15;;;;;;;;;43.67;39.33;;;;;;;;5178150;27;13309;-70
2022/01/19 13:22:58;;;;;;;;;48.33;39.67;;;;;;;;5178357;27;12357;-69
2022/01/19 13:25:25;;;;;;;;;43.33;38.00;;;;;;;;5177689;27;11709;-69
2022/01/19 13:27:54;;;;;;;;;42.00;37.00;;;;;;;;5178318;27;11515;-70
2022/01/19 13:30:19;;;;;;;;;42.67;38.33;;;;;;;;5177622;27;10440;-68
2022/01/19 13:32:45;;;;;;;;;42.00;36.33;;;;;;;;5178418;27;10416;-68
2022/01/19 13:35:11;;;;;;;;;48.00;39.00;;;;;;;;5178435;27;9564;-68
2022/01/19 13:37:55;;;;;;;;;49.00;41.33;;;;;;;;5178412;27;12835;-67
2022/01/19 13:40:22;;;;;;;;;37.67;34.33;;;;;;;;5177534;27;12827;-69
2022/01/19 13:42:56;;;;;;;;;39.67;37.67;;;;;;;;5186309;27;12284;-68
2022/01/19 13:45:49;;;;;;;;;40.33;37.33;;;;;;;;5198442;27;12226;-70
2022/01/19 13:48:29;;;;;;;;;43.00;36.67;;;;;;;;5193925;27;13310;-68
2022/01/19 13:50:57;;;;;;;;;44.33;36.67;;;;;;;;5189235;27;11708;-68
2022/01/19 13:53:27;;;;;;;;;41.33;37.00;;;;;;;;5184750;27;8943;-68
2022/01/19 13:55:53;;;;;;;;;38.00;34.67;;;;;;;;5184253;27;11475;-69
2022/01/19 13:58:18;;;;;;;;;36.00;33.33;;;;;;;;5184218;27;13449;-69
2022/01/19 14:00:49;;;;;;;;;39.00;33.67;;;;;;;;5184223;27;11408;-68
2022/01/19 14:03:15;;;;;;;;;35.00;31.67;;;;;;;;5184549;27;11502;-68
2022/01/19 14:05:44;;;;;;;;;42.33;36.00;;;;;;;;5183533;27;11459;-67
2022/01/19 14:08:10;;;;;;;;;35.33;32.33;;;;;;;;5183689;27;13396;-68
2022/01/19 14:10:39;;;;;;;;;33.50;33.50;;;;;;;;5183085;27;13295;-67
2022/01/19 14:13:26;;;;;;;;;36.50;29.00;;;;;;;;5183666;27;11465;-68
2022/01/19 14:15:51;;;;;;;;;31.75;28.25;;;;;;;;5183910;27;12464;-69
2022/01/19 14:18:17;;;;;;;;;31.50;29.00;;;;;;;;5183558;27;11635;-68
2022/01/19 14:20:42;;;;;;;;;26.50;25.25;;;;;;;;5184174;27;10335;-68
2022/01/19 14:23:12;;;;;;;;;28.50;27.00;;;;;;;;5184684;27;13538;-68
2022/01/19 14:25:38;;;;;;;;;28.75;27.50;;;;;;;;5184388;27;11543;-68
2022/01/19 14:28:12;;;;;;;;;20.25;19.50;;;;;;;;5183718;27;12177;-69
2022/01/19 14:30:37;;;;;;;;;25.50;22.50;;;;;;;;5183416;27;10632;-68
2022/01/19 14:33:09;;;;;;;;;27.75;25.25;;;;;;;;5183911;27;12182;-69
2022/01/19 14:35:40;;;;;;;;;28.00;23.75;;;;;;;;5184203;27;11508;-69
2022/01/19 14:38:12;;;;;;;;;28.75;22.25;;;;;;;;5183438;27;11432;-71
2022/01/19 14:40:51;;;;;;;;;23.75;22.00;;;;;;;;5183284;27;11427;-67
2022/01/19 14:43:22;;;;;;;;;19.50;16.75;;;;;;;;5183658;27;11523;-71
2022/01/19 14:45:54;;;;;;;;;28.25;25.25;;;;;;;;5183350;27;13601;-74
2022/01/19 14:48:20;;;;;;;;;21.25;19.00;;;;;;;;5183664;27;13587;-73
2022/01/19 14:50:46;;;;;;;;;22.00;20.00;;;;;;;;5183626;27;12170;-72
2022/01/19 14:53:12;;;;;;;;;25.25;21.25;;;;;;;;5183594;27;11575;-72
2022/01/19 14:55:39;;;;;;;;;27.75;24.00;;;;;;;;5183256;27;11713;-72
2022/01/19 14:58:05;;;;;;;;;29.75;24.75;;;;;;;;5183897;27;11830;-70
2022/01/19 15:00:31;;;;;;;;;27.50;23.75;;;;;;;;5183838;27;11557;-72
2022/01/19 15:02:59;;;;;;;;;23.25;22.50;;;;;;;;5174110;27;11434;-71
2022/01/19 15:05:25;;;;;;;;;19.75;19.75;;;;;;;;5177123;27;11886;-70
2022/01/19 15:07:52;;;;;;;;;29.50;24.75;;;;;;;;5170803;27;13201;-71
2022/01/19 15:10:17;;;;;;;;;28.50;23.50;;;;;;;;5177356;27;12527;-70
2022/01/19 15:12:43;;;;;;;;;22.50;22.50;;;;;;;;5177877;27;12195;-71
2022/01/19 15:15:11;;;;;;;;;25.00;23.00;;;;;;;;5183175;27;8774;-71
2022/01/19 15:17:37;;;;;;;;;73.00;57.00;;;;;;;;5183043;27;11465;-71
2022/01/19 15:20:04;;;;;;;;;32.50;27.75;;;;;;;;5169238;27;10576;-69
2022/01/19 15:22:31;;;;;;;;;29.25;27.25;;;;;;;;5168392;27;13481;-69
2022/01/19 15:24:56;;;;;;;;;4.25;3.25;;;;;;;;5172577;27;12348;-69
2022/01/19 15:27:21;;;;;;;;;30.00;28.50;;;;;;;;5170190;27;22544;-71
2022/01/19 15:29:48;;;;;;;;;32.75;30.75;;;;;;;;5170844;27;23833;-71
2022/01/19 15:32:14;;;;;;;;;29.00;28.25;;;;;;;;5171577;27;12512;-71
2022/01/19 15:34:40;;;;;;;;;33.75;28.25;;;;;;;;5170200;27;12357;-73
2022/01/19 15:37:05;;;;;;;;;27.25;26.75;;;;;;;;5170428;27;8792;-72
2022/01/19 15:39:32;;;;;;;;;29.25;27.50;;;;;;;;5169551;27;12203;-73
2022/01/19 15:41:57;;;;;;;;;27.25;26.00;;;;;;;;5171662;27;11450;-70
2022/01/19 15:44:23;;;;;;;;;28.50;26.25;;;;;;;;5170460;27;12185;-71
2022/01/19 15:46:48;;;;;;;;;35.67;34.00;;;;;;;;5171001;27;11358;-73
2022/01/19 15:49:13;;;;;;;;;38.25;31.75;;;;;;;;5171319;27;13365;-71
2022/01/19 15:51:40;;;;;;;;;29.50;28.25;;;;;;;;5165022;27;11371;-68
2022/01/19 15:54:05;;;;;;;;;46.33;39.00;;;;;;;;5164592;27;12412;-70
2022/01/19 15:56:30;;;;;;;;;35.75;34.25;;;;;;;;5164774;27;13217;-77
2022/01/19 15:58:57;;;;;;;;;33.00;31.25;;;;;;;;5166273;27;14283;-70
2022/01/19 16:01:22;;;;;;;;;32.25;31.50;;;;;;;;5164067;27;10573;-73
2022/01/19 16:03:48;;;;;;;;;29.00;27.50;;;;;;;;5164985;27;12211;-75
2022/01/19 16:06:14;;;;;;;;;35.75;31.50;;;;;;;;5163520;27;13987;-74
2022/01/19 16:08:39;;;;;;;;;34.75;31.50;;;;;;;;5160224;27;12437;-73
2022/01/19 16:11:04;;;;;;;;;29.50;25.25;;;;;;;;5164294;27;8797;-74
2022/01/19 16:13:29;;;;;;;;;39.00;32.50;;;;;;;;5165984;27;13370;-73
2022/01/19 16:15:55;;;;;;;;;34.50;31.75;;;;;;;;5164957;27;13243;-72
2022/01/19 16:18:20;;;;;;;;;35.25;31.25;;;;;;;;5165050;27;12457;-73
2022/01/19 16:20:47;;;;;;;;;34.67;32.00;;;;;;;;5166622;27;10575;-71
2022/01/19 16:26:11;;;;;;;;;36.67;34.67;;;;;;;;5164533;27;11601;-71
2022/01/19 16:28:38;;;;;;;;;40.33;35.67;;;;;;;;5163296;27;11478;-73
2022/01/19 16:31:04;;;;;;;;;38.00;35.33;;;;;;;;5164670;27;13394;-74
2022/01/19 16:33:31;;;;;;;;;43.00;33.00;;;;;;;;5162177;27;13245;-73
2022/01/19 16:35:56;;;;;;;;;50.67;39.00;;;;;;;;5166258;27;13358;-75
